sensor_id;sensor_type;location;lat;lon;timestamp;temperature;humidity
22781;DHT22;11557;50.884;4.322;2023-05-29T00:01:19;17.50;99.90
22781;DHT22;11557;50.884;4.322;2023-05-29T00:03:46;17.30;99.90
22781;DHT22;11557;50.884;4.322;2023-05-29T00:06:13;17.30;99.90
22781;DHT22;11557;50.884;4.322;2023-05-29T00:08:39;17.30;99.90
22781;DHT22;11557;50.884;4.322;2023-05-29T00:11:05;17.30;99.90
22781;DHT22;11557;50.884;4.322;2023-05-29T00:13:31;17.30;99.90
22781;DHT22;11557;50.884;4.322;2023-05-29T00:15:57;17.10;99.90
22781;DHT22;11557;50.884;4.322;2023-05-29T00:18:22;17.20;99.90
22781;DHT22;11557;50.884;4.322;2023-05-29T00:20:48;17.10;99.90
22781;DHT22;11557;50.884;4.322;2023-05-29T00:23:14;17.20;99.90
22781;DHT22;11557;50.884;4.322;2023-05-29T00:25:39;17.10;99.90
22781;DHT22;11557;50.884;4.322;2023-05-29T00:28:09;17.20;99.90
22781;DHT22;11557;50.884;4.322;2023-05-29T00:30:37;17.10;99.90
22781;DHT22;11557;50.884;4.322;2023-05-29T00:33:03;17.00;99.90
22781;DHT22;11557;50.884;4.322;2023-05-29T00:35:28;16.90;99.90
22781;DHT22;11557;50.884;4.322;2023-05-29T00:37:55;17.10;99.90
22781;DHT22;11557;50.884;4.322;2023-05-29T00:40:20;17.10;99.90
22781;DHT22;11557;50.884;4.322;2023-05-29T00:42:46;16.80;99.90
22781;DHT22;11557;50.884;4.322;2023-05-29T00:45:12;16.70;99.90
22781;DHT22;11557;50.884;4.322;2023-05-29T00:47:40;16.60;99.90
22781;DHT22;11557;50.884;4.322;2023-05-29T00:50:06;16.70;99.90
22781;DHT22;11557;50.884;4.322;2023-05-29T00:52:33;16.60;99.90
22781;DHT22;11557;50.884;4.322;2023-05-29T00:54:59;16.70;99.90
22781;DHT22;11557;50.884;4.322;2023-05-29T00:57:28;16.70;99.90
22781;DHT22;11557;50.884;4.322;2023-05-29T00:59:54;16.70;99.90
22781;DHT22;11557;50.884;4.322;2023-05-29T01:02:20;16.30;99.90
22781;DHT22;11557;50.884;4.322;2023-05-29T01:04:47;16.20;99.90
22781;DHT22;11557;50.884;4.322;2023-05-29T01:07:14;16.20;99.90
22781;DHT22;11557;50.884;4.322;2023-05-29T01:09:40;16.10;99.90
22781;DHT22;11557;50.884;4.322;2023-05-29T01:12:28;16.10;99.90
22781;DHT22;11557;50.884;4.322;2023-05-29T01:15:18;16.20;99.90
22781;DHT22;11557;50.884;4.322;2023-05-29T01:20:27;16.20;99.90
22781;DHT22;11557;50.884;4.322;2023-05-29T01:23:17;16.00;99.90
22781;DHT22;11557;50.884;4.322;2023-05-29T01:26:10;16.00;99.90
22781;DHT22;11557;50.884;4.322;2023-05-29T01:28:47;15.90;99.90
22781;DHT22;11557;50.884;4.322;2023-05-29T01:31:20;15.80;99.90
22781;DHT22;11557;50.884;4.322;2023-05-29T01:33:51;16.00;99.90
22781;DHT22;11557;50.884;4.322;2023-05-29T01:36:17;16.00;99.90
22781;DHT22;11557;50.884;4.322;2023-05-29T01:38:42;16.00;99.90
22781;DHT22;11557;50.884;4.322;2023-05-29T01:41:08;16.00;99.90
22781;DHT22;11557;50.884;4.322;2023-05-29T01:43:34;16.10;99.90
22781;DHT22;11557;50.884;4.322;2023-05-29T01:46:01;16.00;99.90
22781;DHT22;11557;50.884;4.322;2023-05-29T01:48:27;15.90;99.90
22781;DHT22;11557;50.884;4.322;2023-05-29T01:50:54;15.80;99.90
22781;DHT22;11557;50.884;4.322;2023-05-29T01:53:20;16.00;99.90
22781;DHT22;11557;50.884;4.322;2023-05-29T01:55:45;15.90;99.90
22781;DHT22;11557;50.884;4.322;2023-05-29T01:58:11;16.00;99.90
22781;DHT22;11557;50.884;4.322;2023-05-29T02:00:38;16.00;99.90
22781;DHT22;11557;50.884;4.322;2023-05-29T02:03:03;16.10;99.90
22781;DHT22;11557;50.884;4.322;2023-05-29T02:05:29;15.80;99.90
22781;DHT22;11557;50.884;4.322;2023-05-29T02:07:55;16.00;99.90
22781;DHT22;11557;50.884;4.322;2023-05-29T02:10:21;16.20;99.90
22781;DHT22;11557;50.884;4.322;2023-05-29T02:12:47;16.30;99.90
22781;DHT22;11557;50.884;4.322;2023-05-29T02:15:13;16.20;99.90
22781;DHT22;11557;50.884;4.322;2023-05-29T02:17:38;16.40;99.90
22781;DHT22;11557;50.884;4.322;2023-05-29T02:20:04;16.20;99.90
22781;DHT22;11557;50.884;4.322;2023-05-29T02:22:30;16.00;99.90
22781;DHT22;11557;50.884;4.322;2023-05-29T02:24:56;15.90;99.90
22781;DHT22;11557;50.884;4.322;2023-05-29T02:27:21;15.80;99.90
22781;DHT22;11557;50.884;4.322;2023-05-29T02:29:47;16.00;99.90
22781;DHT22;11557;50.884;4.322;2023-05-29T02:32:13;16.00;99.90
22781;DHT22;11557;50.884;4.322;2023-05-29T02:34:38;16.00;99.90
22781;DHT22;11557;50.884;4.322;2023-05-29T02:37:04;15.90;99.90
22781;DHT22;11557;50.884;4.322;2023-05-29T02:39:29;16.00;99.90
22781;DHT22;11557;50.884;4.322;2023-05-29T02:41:55;15.60;99.90
22781;DHT22;11557;50.884;4.322;2023-05-29T02:44:21;15.80;99.90
22781;DHT22;11557;50.884;4.322;2023-05-29T02:46:46;15.70;99.90
22781;DHT22;11557;50.884;4.322;2023-05-29T02:49:12;15.50;99.90
22781;DHT22;11557;50.884;4.322;2023-05-29T02:51:38;15.40;99.90
22781;DHT22;11557;50.884;4.322;2023-05-29T02:54:03;15.40;99.90
22781;DHT22;11557;50.884;4.322;2023-05-29T02:56:30;15.40;99.90
22781;DHT22;11557;50.884;4.322;2023-05-29T02:58:55;15.30;99.90
22781;DHT22;11557;50.884;4.322;2023-05-29T03:01:21;15.20;99.90
22781;DHT22;11557;50.884;4.322;2023-05-29T03:03:46;15.20;99.90
22781;DHT22;11557;50.884;4.322;2023-05-29T03:06:12;15.30;99.90
22781;DHT22;11557;50.884;4.322;2023-05-29T03:08:38;15.40;99.90
22781;DHT22;11557;50.884;4.322;2023-05-29T03:11:07;15.40;99.90
22781;DHT22;11557;50.884;4.322;2023-05-29T03:13:36;15.50;99.90
22781;DHT22;11557;50.884;4.322;2023-05-29T03:16:02;15.50;99.90
22781;DHT22;11557;50.884;4.322;2023-05-29T03:18:28;15.40;99.90
22781;DHT22;11557;50.884;4.322;2023-05-29T03:20:54;15.30;99.90
22781;DHT22;11557;50.884;4.322;2023-05-29T03:23:20;15.30;99.90
22781;DHT22;11557;50.884;4.322;2023-05-29T03:25:45;15.30;99.90
22781;DHT22;11557;50.884;4.322;2023-05-29T03:28:11;15.20;99.90
22781;DHT22;11557;50.884;4.322;2023-05-29T03:30:36;15.30;99.90
22781;DHT22;11557;50.884;4.322;2023-05-29T03:33:02;15.40;99.90
22781;DHT22;11557;50.884;4.322;2023-05-29T03:35:29;15.30;99.90
22781;DHT22;11557;50.884;4.322;2023-05-29T03:37:55;15.30;99.90
22781;DHT22;11557;50.884;4.322;2023-05-29T03:40:21;15.20;99.90
22781;DHT22;11557;50.884;4.322;2023-05-29T03:42:46;15.20;99.90
22781;DHT22;11557;50.884;4.322;2023-05-29T03:45:12;15.30;99.90
22781;DHT22;11557;50.884;4.322;2023-05-29T03:47:37;15.10;99.90
22781;DHT22;11557;50.884;4.322;2023-05-29T03:50:03;15.10;99.90
22781;DHT22;11557;50.884;4.322;2023-05-29T03:52:29;15.20;99.90
22781;DHT22;11557;50.884;4.322;2023-05-29T03:54:55;15.10;99.90
22781;DHT22;11557;50.884;4.322;2023-05-29T03:57:20;15.10;99.90
22781;DHT22;11557;50.884;4.322;2023-05-29T03:59:46;15.20;99.90
22781;DHT22;11557;50.884;4.322;2023-05-29T04:02:12;15.30;99.90
22781;DHT22;11557;50.884;4.322;2023-05-29T04:04:37;15.30;99.90
22781;DHT22;11557;50.884;4.322;2023-05-29T04:07:05;15.20;99.90
22781;DHT22;11557;50.884;4.322;2023-05-29T04:09:32;14.90;99.90
22781;DHT22;11557;50.884;4.322;2023-05-29T04:11:58;15.10;99.90
22781;DHT22;11557;50.884;4.322;2023-05-29T04:14:25;14.90;99.90
22781;DHT22;11557;50.884;4.322;2023-05-29T04:16:50;14.80;99.90
22781;DHT22;11557;50.884;4.322;2023-05-29T04:19:16;14.80;99.90
22781;DHT22;11557;50.884;4.322;2023-05-29T04:21:41;14.60;99.90
22781;DHT22;11557;50.884;4.322;2023-05-29T04:24:07;14.70;99.90
22781;DHT22;11557;50.884;4.322;2023-05-29T04:26:33;14.70;99.90
22781;DHT22;11557;50.884;4.322;2023-05-29T04:28:59;14.90;99.90
22781;DHT22;11557;50.884;4.322;2023-05-29T04:31:25;15.00;99.90
22781;DHT22;11557;50.884;4.322;2023-05-29T04:33:54;15.00;99.90
22781;DHT22;11557;50.884;4.322;2023-05-29T04:36:24;15.00;99.90
22781;DHT22;11557;50.884;4.322;2023-05-29T04:38:52;15.20;99.90
22781;DHT22;11557;50.884;4.322;2023-05-29T04:41:18;14.90;99.90
22781;DHT22;11557;50.884;4.322;2023-05-29T04:43:43;15.00;99.90
22781;DHT22;11557;50.884;4.322;2023-05-29T04:46:09;14.90;99.90
22781;DHT22;11557;50.884;4.322;2023-05-29T04:48:38;14.90;99.90
22781;DHT22;11557;50.884;4.322;2023-05-29T04:51:06;14.90;99.90
22781;DHT22;11557;50.884;4.322;2023-05-29T04:53:32;15.00;99.90
22781;DHT22;11557;50.884;4.322;2023-05-29T04:55:58;15.00;99.90
22781;DHT22;11557;50.884;4.322;2023-05-29T04:58:26;14.90;99.90
22781;DHT22;11557;50.884;4.322;2023-05-29T05:00:51;14.90;99.90
22781;DHT22;11557;50.884;4.322;2023-05-29T05:03:17;14.90;99.90
22781;DHT22;11557;50.884;4.322;2023-05-29T05:05:58;15.10;99.90
22781;DHT22;11557;50.884;4.322;2023-05-29T05:08:24;15.00;99.90
22781;DHT22;11557;50.884;4.322;2023-05-29T05:10:49;14.90;99.90
22781;DHT22;11557;50.884;4.322;2023-05-29T05:13:15;15.00;99.90
22781;DHT22;11557;50.884;4.322;2023-05-29T05:15:40;15.00;99.90
22781;DHT22;11557;50.884;4.322;2023-05-29T05:18:06;14.70;99.90
22781;DHT22;11557;50.884;4.322;2023-05-29T05:20:32;14.80;99.90
22781;DHT22;11557;50.884;4.322;2023-05-29T05:22:58;15.00;99.90
22781;DHT22;11557;50.884;4.322;2023-05-29T05:25:25;14.90;99.90
22781;DHT22;11557;50.884;4.322;2023-05-29T05:27:50;15.00;99.90
22781;DHT22;11557;50.884;4.322;2023-05-29T05:30:16;14.90;99.90
22781;DHT22;11557;50.884;4.322;2023-05-29T05:32:42;15.00;99.90
22781;DHT22;11557;50.884;4.322;2023-05-29T05:35:07;14.80;99.90
22781;DHT22;11557;50.884;4.322;2023-05-29T05:37:35;14.90;99.90
22781;DHT22;11557;50.884;4.322;2023-05-29T05:40:01;14.80;99.90
22781;DHT22;11557;50.884;4.322;2023-05-29T05:42:27;14.80;99.90
22781;DHT22;11557;50.884;4.322;2023-05-29T05:44:52;14.90;99.90
22781;DHT22;11557;50.884;4.322;2023-05-29T05:47:18;15.10;99.90
22781;DHT22;11557;50.884;4.322;2023-05-29T05:49:43;15.20;99.90
22781;DHT22;11557;50.884;4.322;2023-05-29T05:52:09;15.30;99.90
22781;DHT22;11557;50.884;4.322;2023-05-29T05:54:35;15.30;99.90
22781;DHT22;11557;50.884;4.322;2023-05-29T05:57:01;15.20;99.90
22781;DHT22;11557;50.884;4.322;2023-05-29T05:59:28;15.30;99.90
22781;DHT22;11557;50.884;4.322;2023-05-29T06:01:53;15.10;99.90
22781;DHT22;11557;50.884;4.322;2023-05-29T06:04:19;15.10;99.90
22781;DHT22;11557;50.884;4.322;2023-05-29T06:06:44;15.20;99.90
22781;DHT22;11557;50.884;4.322;2023-05-29T06:09:10;15.40;99.90
22781;DHT22;11557;50.884;4.322;2023-05-29T06:11:37;15.50;99.90
22781;DHT22;11557;50.884;4.322;2023-05-29T06:14:03;15.50;99.90
22781;DHT22;11557;50.884;4.322;2023-05-29T06:16:29;15.50;99.90
22781;DHT22;11557;50.884;4.322;2023-05-29T06:18:55;15.60;99.90
22781;DHT22;11557;50.884;4.322;2023-05-29T06:21:21;15.60;99.90
22781;DHT22;11557;50.884;4.322;2023-05-29T06:23:47;15.60;99.90
22781;DHT22;11557;50.884;4.322;2023-05-29T06:26:12;15.50;99.90
22781;DHT22;11557;50.884;4.322;2023-05-29T06:28:38;15.30;99.90
22781;DHT22;11557;50.884;4.322;2023-05-29T06:31:04;15.40;99.90
22781;DHT22;11557;50.884;4.322;2023-05-29T06:33:29;15.60;99.90
22781;DHT22;11557;50.884;4.322;2023-05-29T06:35:55;15.70;99.90
22781;DHT22;11557;50.884;4.322;2023-05-29T06:38:28;15.80;99.90
22781;DHT22;11557;50.884;4.322;2023-05-29T06:40:54;15.90;99.90
22781;DHT22;11557;50.884;4.322;2023-05-29T06:43:20;16.00;99.90
22781;DHT22;11557;50.884;4.322;2023-05-29T06:45:45;17.40;99.90
22781;DHT22;11557;50.884;4.322;2023-05-29T06:48:11;19.90;99.90
22781;DHT22;11557;50.884;4.322;2023-05-29T06:50:37;22.00;99.90
22781;DHT22;11557;50.884;4.322;2023-05-29T06:53:02;23.70;99.90
22781;DHT22;11557;50.884;4.322;2023-05-29T06:55:28;24.50;99.90
22781;DHT22;11557;50.884;4.322;2023-05-29T06:57:54;25.20;99.90
22781;DHT22;11557;50.884;4.322;2023-05-29T07:00:19;26.30;99.90
22781;DHT22;11557;50.884;4.322;2023-05-29T07:02:45;27.20;99.90
22781;DHT22;11557;50.884;4.322;2023-05-29T07:05:11;28.80;99.90
22781;DHT22;11557;50.884;4.322;2023-05-29T07:07:36;30.30;99.90
22781;DHT22;11557;50.884;4.322;2023-05-29T07:10:02;31.10;99.90
22781;DHT22;11557;50.884;4.322;2023-05-29T07:12:28;31.00;98.70
22781;DHT22;11557;50.884;4.322;2023-05-29T07:14:54;32.10;97.90
22781;DHT22;11557;50.884;4.322;2023-05-29T07:17:19;32.80;97.00
22781;DHT22;11557;50.884;4.322;2023-05-29T07:19:45;33.20;95.50
22781;DHT22;11557;50.884;4.322;2023-05-29T07:22:12;33.80;92.90
22781;DHT22;11557;50.884;4.322;2023-05-29T07:24:38;34.20;92.00
22781;DHT22;11557;50.884;4.322;2023-05-29T07:27:04;34.00;91.00
22781;DHT22;11557;50.884;4.322;2023-05-29T07:29:31;33.30;88.00
22781;DHT22;11557;50.884;4.322;2023-05-29T07:31:56;32.90;87.30
22781;DHT22;11557;50.884;4.322;2023-05-29T07:34:22;32.40;90.80
22781;DHT22;11557;50.884;4.322;2023-05-29T07:37:00;32.50;88.80
22781;DHT22;11557;50.884;4.322;2023-05-29T07:39:27;31.80;90.40
22781;DHT22;11557;50.884;4.322;2023-05-29T07:41:55;32.40;91.30
22781;DHT22;11557;50.884;4.322;2023-05-29T07:44:20;32.20;90.00
22781;DHT22;11557;50.884;4.322;2023-05-29T07:46:46;32.30;90.10
22781;DHT22;11557;50.884;4.322;2023-05-29T07:49:12;32.80;89.40
22781;DHT22;11557;50.884;4.322;2023-05-29T07:51:38;31.70;90.20
22781;DHT22;11557;50.884;4.322;2023-05-29T07:54:05;32.50;90.70
22781;DHT22;11557;50.884;4.322;2023-05-29T07:56:31;32.40;90.00
22781;DHT22;11557;50.884;4.322;2023-05-29T07:58:59;33.00;89.60
22781;DHT22;11557;50.884;4.322;2023-05-29T08:01:25;33.20;86.90
22781;DHT22;11557;50.884;4.322;2023-05-29T08:03:52;32.80;86.60
22781;DHT22;11557;50.884;4.322;2023-05-29T08:06:18;32.60;88.90
22781;DHT22;11557;50.884;4.322;2023-05-29T08:08:44;32.80;89.20
22781;DHT22;11557;50.884;4.322;2023-05-29T08:11:09;32.60;87.50
22781;DHT22;11557;50.884;4.322;2023-05-29T08:13:36;32.50;87.00
22781;DHT22;11557;50.884;4.322;2023-05-29T08:16:02;32.30;88.70
22781;DHT22;11557;50.884;4.322;2023-05-29T08:18:31;32.10;87.40
22781;DHT22;11557;50.884;4.322;2023-05-29T08:20:58;32.60;87.30
22781;DHT22;11557;50.884;4.322;2023-05-29T08:23:24;33.30;88.20
22781;DHT22;11557;50.884;4.322;2023-05-29T08:25:50;33.20;84.90
22781;DHT22;11557;50.884;4.322;2023-05-29T08:28:16;32.80;84.60
22781;DHT22;11557;50.884;4.322;2023-05-29T08:30:45;32.10;85.50
22781;DHT22;11557;50.884;4.322;2023-05-29T08:33:11;31.90;87.80
22781;DHT22;11557;50.884;4.322;2023-05-29T08:35:36;31.00;87.80
22781;DHT22;11557;50.884;4.322;2023-05-29T08:38:02;31.70;89.60
22781;DHT22;11557;50.884;4.322;2023-05-29T08:40:28;32.30;87.50
22781;DHT22;11557;50.884;4.322;2023-05-29T08:42:57;31.60;86.60
22781;DHT22;11557;50.884;4.322;2023-05-29T08:45:25;32.10;88.70
22781;DHT22;11557;50.884;4.322;2023-05-29T08:47:53;32.60;87.80
22781;DHT22;11557;50.884;4.322;2023-05-29T08:50:20;32.80;86.70
22781;DHT22;11557;50.884;4.322;2023-05-29T08:52:46;32.60;87.60
22781;DHT22;11557;50.884;4.322;2023-05-29T08:55:13;32.50;85.10
22781;DHT22;11557;50.884;4.322;2023-05-29T08:57:39;32.10;86.20
22781;DHT22;11557;50.884;4.322;2023-05-29T09:00:06;32.10;87.20
22781;DHT22;11557;50.884;4.322;2023-05-29T09:02:38;31.70;86.60
22781;DHT22;11557;50.884;4.322;2023-05-29T09:05:04;31.80;88.40
22781;DHT22;11557;50.884;4.322;2023-05-29T09:07:30;31.70;88.10
22781;DHT22;11557;50.884;4.322;2023-05-29T09:09:56;31.80;88.60
22781;DHT22;11557;50.884;4.322;2023-05-29T09:12:24;30.90;86.10
22781;DHT22;11557;50.884;4.322;2023-05-29T09:14:56;30.90;88.30
22781;DHT22;11557;50.884;4.322;2023-05-29T09:17:22;29.90;89.50
22781;DHT22;11557;50.884;4.322;2023-05-29T09:19:48;29.10;90.00
22781;DHT22;11557;50.884;4.322;2023-05-29T09:22:15;29.00;90.80
22781;DHT22;11557;50.884;4.322;2023-05-29T09:24:47;28.80;90.00
22781;DHT22;11557;50.884;4.322;2023-05-29T09:27:13;28.00;91.10
22781;DHT22;11557;50.884;4.322;2023-05-29T09:29:40;27.60;91.30
22781;DHT22;11557;50.884;4.322;2023-05-29T09:32:07;27.90;92.30
22781;DHT22;11557;50.884;4.322;2023-05-29T09:34:34;28.00;91.60
22781;DHT22;11557;50.884;4.322;2023-05-29T09:37:04;27.80;93.50
22781;DHT22;11557;50.884;4.322;2023-05-29T09:39:50;27.40;93.00
22781;DHT22;11557;50.884;4.322;2023-05-29T09:42:17;27.40;93.60
22781;DHT22;11557;50.884;4.322;2023-05-29T09:44:45;27.90;93.10
22781;DHT22;11557;50.884;4.322;2023-05-29T09:47:16;27.70;92.70
22781;DHT22;11557;50.884;4.322;2023-05-29T09:49:43;27.80;93.60
22781;DHT22;11557;50.884;4.322;2023-05-29T09:52:13;27.60;92.70
22781;DHT22;11557;50.884;4.322;2023-05-29T09:54:43;26.80;92.80
22781;DHT22;11557;50.884;4.322;2023-05-29T09:57:16;27.20;93.80
22781;DHT22;11557;50.884;4.322;2023-05-29T09:59:45;27.30;92.60
22781;DHT22;11557;50.884;4.322;2023-05-29T10:02:14;27.30;93.30
22781;DHT22;11557;50.884;4.322;2023-05-29T10:04:41;27.30;92.10
22781;DHT22;11557;50.884;4.322;2023-05-29T10:07:24;26.90;94.00
22781;DHT22;11557;50.884;4.322;2023-05-29T10:09:55;27.00;94.80
22781;DHT22;11557;50.884;4.322;2023-05-29T10:12:24;27.20;94.20
22781;DHT22;11557;50.884;4.322;2023-05-29T10:14:56;27.30;94.30
22781;DHT22;11557;50.884;4.322;2023-05-29T10:17:34;27.10;93.90
22781;DHT22;11557;50.884;4.322;2023-05-29T10:20:02;26.80;94.00
22781;DHT22;11557;50.884;4.322;2023-05-29T10:22:31;26.20;94.50
22781;DHT22;11557;50.884;4.322;2023-05-29T10:24:58;25.20;94.90
22781;DHT22;11557;50.884;4.322;2023-05-29T10:27:28;25.30;96.10
22781;DHT22;11557;50.884;4.322;2023-05-29T10:30:04;25.50;95.90
22781;DHT22;11557;50.884;4.322;2023-05-29T10:35:37;25.70;97.10
22781;DHT22;11557;50.884;4.322;2023-05-29T10:38:25;25.80;97.70
22781;DHT22;11557;50.884;4.322;2023-05-29T10:40:52;25.60;95.50
22781;DHT22;11557;50.884;4.322;2023-05-29T10:43:44;25.10;95.80
22781;DHT22;11557;50.884;4.322;2023-05-29T10:46:10;25.00;95.80
22781;DHT22;11557;50.884;4.322;2023-05-29T10:48:36;25.10;97.30
22781;DHT22;11557;50.884;4.322;2023-05-29T10:51:05;25.30;96.50
22781;DHT22;11557;50.884;4.322;2023-05-29T10:53:32;25.30;99.20
22781;DHT22;11557;50.884;4.322;2023-05-29T10:56:01;25.50;97.80
22781;DHT22;11557;50.884;4.322;2023-05-29T10:58:27;25.90;96.00
22781;DHT22;11557;50.884;4.322;2023-05-29T11:00:55;26.20;95.60
22781;DHT22;11557;50.884;4.322;2023-05-29T11:03:30;26.10;95.60
22781;DHT22;11557;50.884;4.322;2023-05-29T11:06:19;25.80;96.90
22781;DHT22;11557;50.884;4.322;2023-05-29T11:08:56;25.90;96.50
22781;DHT22;11557;50.884;4.322;2023-05-29T11:13:54;25.70;97.10
22781;DHT22;11557;50.884;4.322;2023-05-29T11:18:56;25.60;96.00
22781;DHT22;11557;50.884;4.322;2023-05-29T11:21:33;25.60;96.60
22781;DHT22;11557;50.884;4.322;2023-05-29T11:24:00;25.30;95.70
22781;DHT22;11557;50.884;4.322;2023-05-29T11:26:29;25.30;98.40
22781;DHT22;11557;50.884;4.322;2023-05-29T11:29:02;25.30;97.10
22781;DHT22;11557;50.884;4.322;2023-05-29T11:31:31;25.40;97.10
22781;DHT22;11557;50.884;4.322;2023-05-29T11:33:59;25.40;96.60
22781;DHT22;11557;50.884;4.322;2023-05-29T11:36:26;25.60;99.70
22781;DHT22;11557;50.884;4.322;2023-05-29T11:38:53;25.70;97.90
22781;DHT22;11557;50.884;4.322;2023-05-29T11:41:19;25.70;96.80
22781;DHT22;11557;50.884;4.322;2023-05-29T11:43:56;25.80;96.80
22781;DHT22;11557;50.884;4.322;2023-05-29T11:46:26;25.80;97.30
22781;DHT22;11557;50.884;4.322;2023-05-29T11:48:56;25.80;96.80
22781;DHT22;11557;50.884;4.322;2023-05-29T11:51:22;26.10;97.90
22781;DHT22;11557;50.884;4.322;2023-05-29T11:53:49;25.50;97.40
22781;DHT22;11557;50.884;4.322;2023-05-29T11:56:19;25.10;96.80
22781;DHT22;11557;50.884;4.322;2023-05-29T11:58:44;25.40;99.90
22781;DHT22;11557;50.884;4.322;2023-05-29T12:01:10;25.60;99.40
22781;DHT22;11557;50.884;4.322;2023-05-29T12:03:45;25.30;98.00
22781;DHT22;11557;50.884;4.322;2023-05-29T12:06:11;25.40;99.00
22781;DHT22;11557;50.884;4.322;2023-05-29T12:08:38;25.60;98.20
22781;DHT22;11557;50.884;4.322;2023-05-29T12:11:04;25.10;96.80
22781;DHT22;11557;50.884;4.322;2023-05-29T12:13:30;25.30;98.40
22781;DHT22;11557;50.884;4.322;2023-05-29T12:16:00;25.00;98.30
22781;DHT22;11557;50.884;4.322;2023-05-29T12:18:29;25.20;98.10
22781;DHT22;11557;50.884;4.322;2023-05-29T12:21:01;25.30;99.90
22781;DHT22;11557;50.884;4.322;2023-05-29T12:23:30;25.40;98.50
22781;DHT22;11557;50.884;4.322;2023-05-29T12:25:56;25.40;98.90
22781;DHT22;11557;50.884;4.322;2023-05-29T12:28:22;25.40;97.80
22781;DHT22;11557;50.884;4.322;2023-05-29T12:30:49;25.30;99.10
22781;DHT22;11557;50.884;4.322;2023-05-29T12:33:29;25.70;98.60
22781;DHT22;11557;50.884;4.322;2023-05-29T12:36:15;25.60;98.20
22781;DHT22;11557;50.884;4.322;2023-05-29T12:38:48;25.40;96.40
22781;DHT22;11557;50.884;4.322;2023-05-29T12:41:28;25.30;98.30
22781;DHT22;11557;50.884;4.322;2023-05-29T12:43:58;25.30;97.10
22781;DHT22;11557;50.884;4.322;2023-05-29T12:46:25;25.40;97.70
22781;DHT22;11557;50.884;4.322;2023-05-29T12:48:54;25.50;98.00
22781;DHT22;11557;50.884;4.322;2023-05-29T12:51:25;25.70;97.70
22781;DHT22;11557;50.884;4.322;2023-05-29T12:53:52;25.70;99.20
22781;DHT22;11557;50.884;4.322;2023-05-29T12:56:21;25.70;97.60
22781;DHT22;11557;50.884;4.322;2023-05-29T12:58:48;25.70;98.00
22781;DHT22;11557;50.884;4.322;2023-05-29T13:01:14;25.70;98.00
22781;DHT22;11557;50.884;4.322;2023-05-29T13:03:40;25.30;97.90
22781;DHT22;11557;50.884;4.322;2023-05-29T13:06:06;25.10;97.40
22781;DHT22;11557;50.884;4.322;2023-05-29T13:08:32;24.80;98.10
22781;DHT22;11557;50.884;4.322;2023-05-29T13:10:58;24.70;99.90
22781;DHT22;11557;50.884;4.322;2023-05-29T13:13:23;24.60;99.20
22781;DHT22;11557;50.884;4.322;2023-05-29T13:15:49;24.80;98.90
22781;DHT22;11557;50.884;4.322;2023-05-29T13:18:15;24.80;99.00
22781;DHT22;11557;50.884;4.322;2023-05-29T13:20:43;24.70;98.20
22781;DHT22;11557;50.884;4.322;2023-05-29T13:23:08;24.80;98.70
22781;DHT22;11557;50.884;4.322;2023-05-29T13:25:34;24.80;98.40
22781;DHT22;11557;50.884;4.322;2023-05-29T13:28:00;24.50;99.80
22781;DHT22;11557;50.884;4.322;2023-05-29T13:30:26;24.40;99.20
22781;DHT22;11557;50.884;4.322;2023-05-29T13:32:52;24.70;98.80
22781;DHT22;11557;50.884;4.322;2023-05-29T13:35:18;24.90;99.50
22781;DHT22;11557;50.884;4.322;2023-05-29T13:37:44;24.90;99.10
22781;DHT22;11557;50.884;4.322;2023-05-29T13:40:11;24.70;99.00
22781;DHT22;11557;50.884;4.322;2023-05-29T13:42:38;24.30;99.20
22781;DHT22;11557;50.884;4.322;2023-05-29T13:45:05;24.50;99.90
22781;DHT22;11557;50.884;4.322;2023-05-29T13:47:32;24.70;99.90
22781;DHT22;11557;50.884;4.322;2023-05-29T13:49:58;24.60;99.50
22781;DHT22;11557;50.884;4.322;2023-05-29T13:52:25;24.40;99.70
22781;DHT22;11557;50.884;4.322;2023-05-29T13:54:51;24.70;99.90
22781;DHT22;11557;50.884;4.322;2023-05-29T13:57:17;24.40;99.90
22781;DHT22;11557;50.884;4.322;2023-05-29T13:59:43;24.70;99.10
22781;DHT22;11557;50.884;4.322;2023-05-29T14:02:08;24.50;99.80
22781;DHT22;11557;50.884;4.322;2023-05-29T14:04:34;24.70;99.90
22781;DHT22;11557;50.884;4.322;2023-05-29T14:07:00;24.90;99.00
22781;DHT22;11557;50.884;4.322;2023-05-29T14:09:26;24.90;99.90
22781;DHT22;11557;50.884;4.322;2023-05-29T14:11:55;25.00;99.90
22781;DHT22;11557;50.884;4.322;2023-05-29T14:14:21;25.10;99.10
22781;DHT22;11557;50.884;4.322;2023-05-29T14:16:48;25.30;99.40
22781;DHT22;11557;50.884;4.322;2023-05-29T14:19:14;25.00;98.20
22781;DHT22;11557;50.884;4.322;2023-05-29T14:21:40;25.20;99.00
22781;DHT22;11557;50.884;4.322;2023-05-29T14:24:06;24.90;99.00
22781;DHT22;11557;50.884;4.322;2023-05-29T14:26:33;24.90;98.50
22781;DHT22;11557;50.884;4.322;2023-05-29T14:28:59;25.00;99.90
22781;DHT22;11557;50.884;4.322;2023-05-29T14:31:24;24.90;99.90
22781;DHT22;11557;50.884;4.322;2023-05-29T14:33:50;25.00;99.90
22781;DHT22;11557;50.884;4.322;2023-05-29T14:36:16;25.10;99.70
22781;DHT22;11557;50.884;4.322;2023-05-29T14:38:41;25.40;98.90
22781;DHT22;11557;50.884;4.322;2023-05-29T14:41:09;25.30;98.00
22781;DHT22;11557;50.884;4.322;2023-05-29T14:43:35;25.30;98.30
22781;DHT22;11557;50.884;4.322;2023-05-29T14:46:00;25.00;98.80
22781;DHT22;11557;50.884;4.322;2023-05-29T14:48:26;24.70;98.90
22781;DHT22;11557;50.884;4.322;2023-05-29T14:50:52;24.30;99.20
22781;DHT22;11557;50.884;4.322;2023-05-29T14:53:17;24.20;99.90
22781;DHT22;11557;50.884;4.322;2023-05-29T14:55:44;24.10;99.90
22781;DHT22;11557;50.884;4.322;2023-05-29T14:58:09;23.90;99.70
22781;DHT22;11557;50.884;4.322;2023-05-29T15:00:35;23.90;99.90
22781;DHT22;11557;50.884;4.322;2023-05-29T15:03:01;23.80;99.90
22781;DHT22;11557;50.884;4.322;2023-05-29T15:05:28;23.90;99.90
22781;DHT22;11557;50.884;4.322;2023-05-29T15:07:54;24.00;99.90
22781;DHT22;11557;50.884;4.322;2023-05-29T15:10:26;24.20;99.90
22781;DHT22;11557;50.884;4.322;2023-05-29T15:12:52;24.30;99.90
22781;DHT22;11557;50.884;4.322;2023-05-29T15:15:26;24.50;99.40
22781;DHT22;11557;50.884;4.322;2023-05-29T15:17:52;24.30;99.20
22781;DHT22;11557;50.884;4.322;2023-05-29T15:20:25;24.20;98.80
22781;DHT22;11557;50.884;4.322;2023-05-29T15:22:52;24.20;98.60
22781;DHT22;11557;50.884;4.322;2023-05-29T15:25:19;24.20;99.90
22781;DHT22;11557;50.884;4.322;2023-05-29T15:27:45;24.20;98.20
22781;DHT22;11557;50.884;4.322;2023-05-29T15:30:16;24.30;99.00
22781;DHT22;11557;50.884;4.322;2023-05-29T15:32:43;24.30;98.90
22781;DHT22;11557;50.884;4.322;2023-05-29T15:35:11;24.10;98.90
22781;DHT22;11557;50.884;4.322;2023-05-29T15:37:38;24.30;98.70
22781;DHT22;11557;50.884;4.322;2023-05-29T15:40:04;24.10;99.90
22781;DHT22;11557;50.884;4.322;2023-05-29T15:42:31;24.00;98.50